Tropical Cyclones
[Index]
Main Index Home Page Stock Weather Photos Extreme Storms Discussion Storm News and Storm Chasing Reports Tropical Cyclones / Hurricanes / Typhoons Weather Data and Links Wild Fires / Bushfires Weather Observation Techniques Weather Picture Catalogue Tornado Pictures and Reports Stock Video Footage and DVDs for sale
Season 1994-1995 Tropical Cyclone VIOLET Track Map
Season 1994-1995 Summaries: [BoM-AU] [JTWC-AU] [JTWC-SIO] [JTWC-SPAC] [JTWC-SH]
<<- Previous TC | JTWC 1994-1995 Season | Next TC ->>

click for intensity scale information  Lat/long Grid: Show Hide

 Date Labels: Show Hide

Joint Typhoon Warning Centre Cyclone Data

Name: VIOLET

28 Feb 1995 00:00 UTC to 07 Mar 1995 12:00 UTC

    date/time    lat    long     hPa   cat  kts
1995-02-28 00   11.0   155.0                  15          
1995-02-28 06   11.3   154.7                  15          
1995-02-28 12   11.7   154.4                  15          
1995-02-28 18   12.1   154.1                  15          
1995-03-01 00   12.5   153.8                  20          
1995-03-01 06   13.0   153.7                  20          
1995-03-01 12   13.5   153.6                  20          
1995-03-01 18   13.9   153.5                  20          
1995-03-02 00   14.3   153.4                  20          
1995-03-02 06   14.7   153.2                  25          
1995-03-02 12   15.0   153.0                  25          
1995-03-02 18   15.2   152.8                  25          
1995-03-03 00   15.5   152.7                  30          
1995-03-03 06   15.8   152.4                  35          
1995-03-03 12   16.3   152.4                  35          
1995-03-03 18   16.9   152.6                  35          
1995-03-04 00   17.5   153.0                  35          
1995-03-04 06   18.0   153.6            1     40          
1995-03-04 12   18.6   154.3            1     45          
1995-03-04 18   19.3   155.1            1     50          
1995-03-05 00   20.1   156.0            2     55          
1995-03-05 06   21.1   157.1            2     65          
1995-03-05 12   22.3   158.2            3     75          
1995-03-05 18   23.8   159.3            3     75          
1995-03-06 00   25.6   160.2            2     70          
1995-03-06 06   27.7   160.1            2     65          
1995-03-06 12   29.7   159.4            2     60          
1995-03-06 18   30.8   157.6            1     50          
1995-03-07 00   30.6   155.6            1     40          
1995-03-07 06   29.8   154.4                  35          
1995-03-07 12   29.1   154.1                  30          
Winds are 1-min average.

Tropical cyclone tracks developed by Michael Bath using data from the Joint Typhoon Warning Centre Best Tracks and Google Maps.


[Australian Severe Weather index] [Copyright Notice] [Email Contacts] [Search This Site] [Privacy Policy]
Document: tropical_cyclone_violet.htm Updated: 18 September 2016